Time,TemperatureF,DewpointF,PressureIn,WindDirection,WindDirectionDegrees,WindSpeedMPH,WindSpeedGustMPH,Humidity,HourlyPrecipIn,Conditions,Clouds,dailyrainin,SolarRadiationWatts/m^2,SoftwareType,DateUTC
2013-01-13 00:02:00,36.0,35.0,-100.00,West,275,7.0,14.0,96,0.07,,,2.21,0.800000,,2013-01-13 09:02:00,
2013-01-13 00:12:00,36.0,35.0,-100.00,West,275,7.0,14.0,96,0.07,,,2.21,0.800000,,2013-01-13 09:12:00,
2013-01-13 00:22:00,36.0,35.0,-100.00,West,275,7.0,14.0,96,0.07,,,2.21,0.800000,,2013-01-13 09:22:00,
2013-01-13 00:52:00,35.0,35.0,-100.00,SW,217,5.0,17.0,97,0.08,,,2.25,0.800000,,2013-01-13 09:52:00,
2013-01-13 01:02:00,35.0,35.0,-100.00,SW,217,5.0,17.0,97,0.08,,,2.25,0.800000,,2013-01-13 10:02:00,
2013-01-13 01:12:00,35.0,35.0,-100.00,SW,217,5.0,17.0,97,0.08,,,2.25,0.800000,,2013-01-13 10:12:00,
2013-01-13 01:22:00,35.0,35.0,-100.00,SW,217,5.0,17.0,97,0.08,,,2.25,0.800000,,2013-01-13 10:22:00,
2013-01-13 01:52:00,36.0,35.0,-100.00,SW,228,7.0,13.0,95,0.06,,,2.24,0.800000,,2013-01-13 10:52:00,
2013-01-13 02:02:00,36.0,35.0,-100.00,SW,228,7.0,13.0,95,0.06,,,2.24,0.800000,,2013-01-13 11:02:00,
2013-01-13 02:12:00,36.0,35.0,-100.00,SW,228,7.0,13.0,95,0.06,,,2.24,0.800000,,2013-01-13 11:12:00,
2013-01-13 02:22:00,36.0,35.0,-100.00,SW,228,7.0,13.0,95,0.06,,,2.24,0.800000,,2013-01-13 11:22:00,
2013-01-13 02:52:00,37.0,36.0,-100.00,WSW,249,12.0,17.0,93,0.07,,,2.23,0.800000,,2013-01-13 11:52:00,
2013-01-13 03:02:00,37.0,36.0,-100.00,WSW,249,12.0,17.0,93,0.07,,,2.23,0.800000,,2013-01-13 12:02:00,
2013-01-13 03:12:00,37.0,36.0,-100.00,WSW,249,12.0,17.0,93,0.07,,,2.23,0.800000,,2013-01-13 12:12:00,
2013-01-13 03:22:00,37.0,36.0,-100.00,WSW,249,12.0,17.0,93,0.07,,,2.23,0.800000,,2013-01-13 12:22:00,
2013-01-13 03:53:00,36.0,36.0,-100.00,WNW,300,4.0,22.0,99,0.03,,,2.09,0.800000,,2013-01-13 12:53:00,
2013-01-13 04:02:00,36.0,36.0,-100.00,WNW,300,4.0,22.0,99,0.03,,,2.09,0.800000,,2013-01-13 13:02:00,
2013-01-13 04:12:00,36.0,36.0,-100.00,WNW,300,4.0,22.0,99,0.03,,,2.09,0.800000,,2013-01-13 13:12:00,
2013-01-13 04:22:00,36.0,36.0,-100.00,WNW,300,4.0,22.0,99,0.03,,,2.09,0.800000,,2013-01-13 13:22:00,
2013-01-13 04:53:00,36.0,36.0,-100.00,North,359,3.0,10.0,99,0.04,,,-99.99,0.800000,,2013-01-13 13:53:00,
2013-01-13 05:02:00,36.0,36.0,-100.00,North,359,3.0,10.0,99,0.04,,,-99.99,0.800000,,2013-01-13 14:02:00,
2013-01-13 05:12:00,36.0,36.0,-100.00,North,359,3.0,10.0,99,0.04,,,-99.99,0.800000,,2013-01-13 14:12:00,
2013-01-13 05:22:00,36.0,36.0,-100.00,North,359,3.0,10.0,99,0.04,,,-99.99,0.800000,,2013-01-13 14:22:00,
2013-01-13 05:53:00,37.0,36.0,-100.00,East,93,2.0,10.0,98,0.05,,,1.99,0.800000,,2013-01-13 14:53:00,
2013-01-13 06:03:00,37.0,36.0,-100.00,East,93,2.0,10.0,98,0.05,,,1.99,0.800000,,2013-01-13 15:03:00,
2013-01-13 06:12:00,37.0,36.0,-100.00,East,93,2.0,10.0,98,0.05,,,1.99,0.800000,,2013-01-13 15:12:00,
2013-01-13 06:22:00,37.0,36.0,-100.00,East,93,2.0,10.0,98,0.05,,,1.99,0.800000,,2013-01-13 15:22:00,
2013-01-13 06:53:00,37.0,37.0,-100.00,ENE,61,6.0,8.0,100,0.08,,,1.97,0.800000,,2013-01-13 15:53:00,
2013-01-13 07:03:00,37.0,37.0,-100.00,ENE,61,6.0,8.0,100,0.08,,,1.97,0.800000,,2013-01-13 16:03:00,
2013-01-13 07:12:00,37.0,37.0,-100.00,ENE,61,6.0,8.0,100,0.08,,,1.97,0.800000,,2013-01-13 16:12:00,
2013-01-13 07:22:00,37.0,37.0,-100.00,ENE,61,6.0,8.0,100,0.08,,,1.97,0.800000,,2013-01-13 16:22:00,
2013-01-13 07:53:00,36.0,36.0,-100.00,NE,50,4.0,7.0,100,0.10,,,1.93,0.800000,,2013-01-13 16:53:00,
2013-01-13 08:03:00,36.0,36.0,-100.00,NE,50,4.0,7.0,100,0.10,,,1.93,0.800000,,2013-01-13 17:03:00,
2013-01-13 08:12:00,36.0,36.0,-100.00,NE,50,4.0,7.0,100,0.10,,,1.93,0.800000,,2013-01-13 17:12:00,
2013-01-13 08:22:00,36.0,36.0,-100.00,NE,50,4.0,7.0,100,0.10,,,1.93,0.800000,,2013-01-13 17:22:00,
2013-01-13 08:53:00,36.0,34.0,-100.00,NE,48,4.0,7.0,93,0.04,,,1.84,0.800000,,2013-01-13 17:53:00,
2013-01-13 09:03:00,36.0,34.0,-100.00,NE,48,4.0,7.0,93,0.04,,,1.84,0.800000,,2013-01-13 18:03:00,
2013-01-13 09:12:00,36.0,34.0,-100.00,NE,48,4.0,7.0,93,0.04,,,1.84,0.800000,,2013-01-13 18:12:00,
2013-01-13 09:22:00,36.0,34.0,-100.00,NE,48,4.0,7.0,93,0.04,,,1.84,0.800000,,2013-01-13 18:22:00,
2013-01-13 09:53:00,36.0,35.0,-100.00,NNW,344,3.0,6.0,99,0.02,,,1.75,0.800000,,2013-01-13 18:53:00,
2013-01-13 10:02:00,36.0,35.0,-100.00,NNW,344,3.0,6.0,99,0.02,,,1.75,0.800000,,2013-01-13 19:02:00,
2013-01-13 10:12:00,36.0,35.0,-100.00,NNW,344,3.0,6.0,99,0.02,,,1.75,0.800000,,2013-01-13 19:12:00,
2013-01-13 10:22:00,36.0,35.0,-100.00,NNW,344,3.0,6.0,99,0.02,,,1.75,0.800000,,2013-01-13 19:22:00,
2013-01-13 10:53:00,36.0,36.0,-100.00,NNE,14,2.0,4.0,100,0.04,,,1.67,2.700000,,2013-01-13 19:53:00,
2013-01-13 11:02:00,36.0,36.0,-100.00,NNE,14,2.0,4.0,100,0.04,,,1.67,2.700000,,2013-01-13 20:02:00,
2013-01-13 11:12:00,36.0,36.0,-100.00,NNE,14,2.0,4.0,100,0.04,,,1.67,2.700000,,2013-01-13 20:12:00,
2013-01-13 11:22:00,36.0,36.0,-100.00,NNE,14,2.0,4.0,100,0.04,,,1.67,2.700000,,2013-01-13 20:22:00,
2013-01-13 11:53:00,36.0,36.0,-100.00,ENE,64,3.0,8.0,100,0.08,,,1.63,9.700000,,2013-01-13 20:53:00,
2013-01-13 12:03:00,36.0,36.0,-100.00,ENE,64,3.0,8.0,100,0.08,,,1.63,9.700000,,2013-01-13 21:03:00,
2013-01-13 12:12:00,36.0,36.0,-100.00,ENE,64,3.0,8.0,100,0.08,,,1.63,9.700000,,2013-01-13 21:12:00,
2013-01-13 12:22:00,36.0,36.0,-100.00,ENE,64,3.0,8.0,100,0.08,,,1.63,9.700000,,2013-01-13 21:22:00,
2013-01-13 12:53:00,36.0,35.0,-100.00,NE,46,5.0,6.0,99,0.08,,,1.59,20.900000,,2013-01-13 21:53:00,
2013-01-13 13:02:00,36.0,35.0,-100.00,NE,46,5.0,6.0,99,0.08,,,1.59,20.900000,,2013-01-13 22:02:00,
2013-01-13 13:12:00,36.0,35.0,-100.00,NE,46,5.0,6.0,99,0.08,,,1.59,20.900000,,2013-01-13 22:12:00,
2013-01-13 13:22:00,36.0,35.0,-100.00,NE,46,5.0,6.0,99,0.08,,,1.59,20.900000,,2013-01-13 22:22:00,
2013-01-13 13:52:00,34.0,34.0,-100.00,ENE,57,5.0,9.0,99,0.08,,,1.57,26.299999,,2013-01-13 22:52:00,
2013-01-13 14:02:00,34.0,34.0,-100.00,ENE,57,5.0,9.0,99,0.08,,,1.57,26.299999,,2013-01-13 23:02:00,
2013-01-13 14:12:00,34.0,34.0,-100.00,ENE,57,5.0,9.0,99,0.08,,,1.57,26.299999,,2013-01-13 23:12:00,
2013-01-13 14:22:00,34.0,34.0,-100.00,ENE,57,5.0,9.0,99,0.08,,,1.57,26.299999,,2013-01-13 23:22:00,
2013-01-13 14:53:00,35.0,35.0,-100.00,WNW,298,5.0,11.0,100,0.09,,,1.56,20.200001,,2013-01-13 23:53:00,
2013-01-13 15:02:00,35.0,35.0,-100.00,WNW,298,5.0,11.0,100,0.09,,,1.56,20.200001,,2013-01-14 00:02:00,
2013-01-13 15:12:00,35.0,35.0,-100.00,WNW,298,5.0,11.0,100,0.09,,,1.56,20.200001,,2013-01-14 00:12:00,
2013-01-13 15:22:00,35.0,35.0,-100.00,WNW,298,5.0,11.0,100,0.09,,,1.56,20.200001,,2013-01-14 00:22:00,
2013-01-13 15:53:00,36.0,35.0,-100.00,NW,310,4.0,12.0,98,0.09,,,1.59,13.400000,,2013-01-14 00:53:00,
2013-01-13 16:02:00,36.0,35.0,-100.00,NW,310,4.0,12.0,98,0.09,,,1.59,13.400000,,2013-01-14 01:02:00,
2013-01-13 16:12:00,36.0,35.0,-100.00,NW,310,4.0,12.0,98,0.09,,,1.59,13.400000,,2013-01-14 01:12:00,
2013-01-13 16:22:00,36.0,35.0,-100.00,NW,310,4.0,12.0,98,0.09,,,1.59,13.400000,,2013-01-14 01:22:00,
2013-01-13 16:52:00,36.0,36.0,-100.00,West,268,6.0,11.0,98,0.08,,,1.58,6.200000,,2013-01-14 01:52:00,
2013-01-13 17:02:00,36.0,36.0,-100.00,West,268,6.0,11.0,98,0.08,,,1.58,6.200000,,2013-01-14 02:02:00,
2013-01-13 17:12:00,36.0,36.0,-100.00,West,268,6.0,11.0,98,0.08,,,1.58,6.200000,,2013-01-14 02:12:00,
2013-01-13 17:22:00,36.0,36.0,-100.00,West,268,6.0,11.0,98,0.08,,,1.58,6.200000,,2013-01-14 02:22:00,
2013-01-13 17:53:00,36.0,36.0,-100.00,SSW,207,2.0,9.0,100,0.07,,,1.57,1.000000,,2013-01-14 02:53:00,
2013-01-13 18:02:00,36.0,36.0,-100.00,SSW,207,2.0,9.0,100,0.07,,,1.57,1.000000,,2013-01-14 03:02:00,
2013-01-13 18:12:00,36.0,36.0,-100.00,SSW,207,2.0,9.0,100,0.07,,,1.57,1.000000,,2013-01-14 03:12:00,
2013-01-13 18:22:00,36.0,36.0,-100.00,SSW,207,2.0,9.0,100,0.07,,,1.57,1.000000,,2013-01-14 03:22:00,
2013-01-13 18:53:00,36.0,36.0,-100.00,West,263,4.0,7.0,100,0.05,,,1.55,0.800000,,2013-01-14 03:53:00,
2013-01-13 19:02:00,36.0,36.0,-100.00,West,263,4.0,7.0,100,0.05,,,1.55,0.800000,,2013-01-14 04:02:00,
2013-01-13 19:12:00,36.0,36.0,-100.00,West,263,4.0,7.0,100,0.05,,,1.55,0.800000,,2013-01-14 04:12:00,
2013-01-13 19:22:00,36.0,36.0,-100.00,West,263,4.0,7.0,100,0.05,,,1.55,0.800000,,2013-01-14 04:22:00,
2013-01-13 19:53:00,37.0,37.0,-100.00,SW,232,5.0,7.0,100,0.06,,,1.54,0.800000,,2013-01-14 04:53:00,
2013-01-13 20:03:00,37.0,37.0,-100.00,SW,232,5.0,7.0,100,0.06,,,1.54,0.800000,,2013-01-14 05:03:00,
2013-01-13 20:12:00,37.0,37.0,-100.00,SW,232,5.0,7.0,100,0.06,,,1.54,0.800000,,2013-01-14 05:12:00,
2013-01-13 20:22:00,37.0,37.0,-100.00,SW,232,5.0,7.0,100,0.06,,,1.54,0.800000,,2013-01-14 05:22:00,
2013-01-13 20:53:00,36.0,36.0,-100.00,NE,37,4.0,7.0,100,0.06,,,1.55,0.800000,,2013-01-14 05:53:00,
2013-01-13 21:02:00,36.0,36.0,-100.00,NE,37,4.0,7.0,100,0.06,,,1.55,0.800000,,2013-01-14 06:02:00,
2013-01-13 21:12:00,36.0,36.0,-100.00,NE,37,4.0,7.0,100,0.06,,,1.55,0.800000,,2013-01-14 06:12:00,
2013-01-13 21:22:00,36.0,36.0,-100.00,NE,37,4.0,7.0,100,0.06,,,1.55,0.800000,,2013-01-14 06:22:00,
2013-01-13 21:52:00,36.0,36.0,-100.00,NE,56,5.0,7.0,100,0.04,,,1.52,0.800000,,2013-01-14 06:52:00,
2013-01-13 22:02:00,36.0,36.0,-100.00,NE,56,5.0,7.0,100,0.04,,,1.52,0.800000,,2013-01-14 07:02:00,
2013-01-13 22:12:00,36.0,36.0,-100.00,NE,56,5.0,7.0,100,0.04,,,1.52,0.800000,,2013-01-14 07:12:00,
2013-01-13 22:22:00,36.0,36.0,-100.00,NE,56,5.0,7.0,100,0.04,,,1.52,0.800000,,2013-01-14 07:22:00,
2013-01-13 22:53:00,36.0,36.0,-100.00,NE,46,5.0,6.0,100,0.03,,,1.49,0.800000,,2013-01-14 07:53:00,
2013-01-13 23:02:00,36.0,36.0,-100.00,NE,46,5.0,6.0,100,0.03,,,1.49,0.800000,,2013-01-14 08:02:00,
2013-01-13 23:12:00,36.0,36.0,-100.00,NE,46,5.0,6.0,100,0.03,,,1.49,0.800000,,2013-01-14 08:12:00,
2013-01-13 23:22:00,36.0,36.0,-100.00,NE,46,5.0,6.0,100,0.03,,,1.49,0.800000,,2013-01-14 08:22:00,
2013-01-13 23:53:00,36.0,36.0,-100.00,NE,40,4.0,7.0,100,0.05,,,1.47,0.800000,,2013-01-14 08:53:00,